createdAt,value
2018-12-14T00:00:42.923Z,9.83
2018-12-14T00:03:11.458Z,9.73
2018-12-14T00:05:40.541Z,10.03
2018-12-14T00:08:09.259Z,8.97
2018-12-14T00:10:37.759Z,10.23
2018-12-14T00:13:06.385Z,10.37
2018-12-14T00:15:35.042Z,9.00
2018-12-14T00:18:03.620Z,9.73
2018-12-14T00:20:32.340Z,11.47
2018-12-14T00:23:00.924Z,10.13
2018-12-14T00:25:29.492Z,11.63
2018-12-14T00:27:58.032Z,11.47
2018-12-14T00:30:26.588Z,11.17
2018-12-14T00:32:55.424Z,10.83
2018-12-14T00:35:24.489Z,11.50
2018-12-14T00:37:53.067Z,10.17
2018-12-14T00:40:21.708Z,11.70
2018-12-14T00:42:50.229Z,12.70
2018-12-14T00:45:18.723Z,13.23
2018-12-14T00:47:47.251Z,12.53
2018-12-14T00:50:15.811Z,12.27
2018-12-14T00:52:44.357Z,11.30
2018-12-14T00:55:12.906Z,10.60
2018-12-14T00:57:41.453Z,11.13
2018-12-14T01:00:11.303Z,10.50
2018-12-14T01:02:39.941Z,11.63
2018-12-14T01:05:08.479Z,10.43
2018-12-14T01:07:37.035Z,10.43
2018-12-14T01:10:06.111Z,12.63
2018-12-14T01:12:34.644Z,12.50
2018-12-14T01:15:03.179Z,11.70
2018-12-14T01:17:31.714Z,11.63
2018-12-14T01:20:00.253Z,10.60
2018-12-14T01:22:28.801Z,10.60
2018-12-14T01:24:57.402Z,11.10
2018-12-14T01:27:25.948Z,10.53
2018-12-14T01:29:54.492Z,11.67
2018-12-14T01:32:23.014Z,11.07
2018-12-14T01:34:51.822Z,10.47
2018-12-14T01:37:20.323Z,11.03
2018-12-14T01:39:48.862Z,9.17
2018-12-14T01:42:17.437Z,10.70
2018-12-14T01:44:46.003Z,10.03
2018-12-14T01:47:14.580Z,9.40
2018-12-14T01:49:43.133Z,11.50
2018-12-14T01:52:12.253Z,8.80
2018-12-14T01:54:40.791Z,10.00
2018-12-14T01:57:09.323Z,9.40
2018-12-14T01:59:37.877Z,10.30
2018-12-14T02:02:06.395Z,9.23
2018-12-14T02:04:34.985Z,9.47
2018-12-14T02:07:03.743Z,8.60
2018-12-14T02:09:33.188Z,9.50
2018-12-14T02:12:01.833Z,9.57
2018-12-14T02:14:30.605Z,8.67
2018-12-14T02:16:59.150Z,8.57
2018-12-14T02:19:27.679Z,8.70
2018-12-14T02:21:56.230Z,8.27
2018-12-14T02:24:24.738Z,9.00
2018-12-14T02:26:53.796Z,10.20
2018-12-14T02:29:22.450Z,9.43
2018-12-14T02:31:51.143Z,7.90
2018-12-14T02:34:19.738Z,7.97
2018-12-14T02:36:48.330Z,9.17
2018-12-14T02:39:16.993Z,9.43
2018-12-14T02:41:45.587Z,8.77
2018-12-14T02:44:14.160Z,8.37
2018-12-14T02:46:42.706Z,8.40
2018-12-14T02:49:11.235Z,8.47
2018-12-14T02:51:39.772Z,7.63
2018-12-14T02:54:08.298Z,7.63
2018-12-14T02:56:36.828Z,10.23
2018-12-14T02:59:05.333Z,8.10
2018-12-14T03:01:33.873Z,8.67
2018-12-14T03:04:02.376Z,8.53
2018-12-14T03:06:30.907Z,7.63
2018-12-14T03:08:59.540Z,9.10
2018-12-14T03:11:28.073Z,7.87
2018-12-14T03:13:56.643Z,8.47
2018-12-14T03:16:25.208Z,7.07
2018-12-14T03:18:53.744Z,7.67
2018-12-14T03:21:22.284Z,9.33
2018-12-14T03:23:50.829Z,7.50
2018-12-14T03:26:19.487Z,9.80
2018-12-14T03:28:47.995Z,8.50
2018-12-14T03:31:16.661Z,6.90
2018-12-14T03:33:45.413Z,7.07
2018-12-14T03:36:13.933Z,8.20
2018-12-14T03:38:42.743Z,9.47
2018-12-14T03:41:11.250Z,8.70
2018-12-14T03:43:40.317Z,7.63
2018-12-14T03:46:08.828Z,8.27
2018-12-14T03:48:37.328Z,7.63
2018-12-14T03:51:05.973Z,7.90
2018-12-14T03:53:35.107Z,7.87
2018-12-14T03:56:03.621Z,7.30
2018-12-14T03:58:32.117Z,9.37
2018-12-14T04:01:00.670Z,8.10
2018-12-14T04:03:29.236Z,8.10
2018-12-14T04:05:57.760Z,8.80
2018-12-14T04:08:26.412Z,6.70
2018-12-14T04:10:55.086Z,8.37
2018-12-14T04:13:23.663Z,9.17
2018-12-14T04:15:52.405Z,7.50
2018-12-14T04:18:21.033Z,7.47
2018-12-14T04:20:49.636Z,6.83
2018-12-14T04:23:18.183Z,6.60
2018-12-14T04:25:46.790Z,8.03
2018-12-14T04:28:15.341Z,8.60
2018-12-14T04:30:43.904Z,8.50
2018-12-14T04:33:12.584Z,7.40
2018-12-14T04:35:41.098Z,6.70
2018-12-14T04:38:09.582Z,8.97
2018-12-14T04:40:38.133Z,7.43
2018-12-14T04:43:06.902Z,7.30
2018-12-14T04:45:35.433Z,7.53
2018-12-14T04:48:04.103Z,7.90
2018-12-14T04:50:32.609Z,7.87
2018-12-14T04:53:01.151Z,8.17
2018-12-14T04:55:29.689Z,8.13
2018-12-14T04:57:58.411Z,8.40
2018-12-14T05:00:27.698Z,7.87
2018-12-14T05:02:56.244Z,8.50
2018-12-14T05:05:24.804Z,8.40
2018-12-14T05:07:53.324Z,7.00
2018-12-14T05:10:21.885Z,9.77
2018-12-14T05:12:56.143Z,8.93
2018-12-14T05:15:21.001Z,8.87
2018-12-14T05:17:49.532Z,8.10
2018-12-14T05:20:18.062Z,8.80
2018-12-14T05:22:46.622Z,8.03
2018-12-14T05:25:15.456Z,9.77
2018-12-14T05:27:44.274Z,9.00
2018-12-14T05:30:13.497Z,9.67
2018-12-14T05:32:42.046Z,8.50
2018-12-14T05:35:10.705Z,9.50
2018-12-14T05:37:39.576Z,10.73
2018-12-14T05:40:08.520Z,9.93
2018-12-14T05:42:37.690Z,10.20
2018-12-14T05:45:07.330Z,8.87
2018-12-14T05:47:35.871Z,9.33
2018-12-14T05:50:05.305Z,8.37
2018-12-14T05:52:33.851Z,8.40
2018-12-14T05:55:02.379Z,10.47
2018-12-14T05:57:31.047Z,10.07
2018-12-14T05:59:59.586Z,10.77
2018-12-14T06:02:28.242Z,9.70
2018-12-14T06:04:56.934Z,10.80
2018-12-14T06:07:26.381Z,10.17
2018-12-14T06:09:54.941Z,9.30
2018-12-14T06:12:23.666Z,8.77
2018-12-14T06:14:52.177Z,9.20
2018-12-14T06:17:20.702Z,13.23
2018-12-14T06:19:49.230Z,11.53
2018-12-14T06:22:17.746Z,9.60
2018-12-14T06:24:46.293Z,9.73
2018-12-14T06:27:14.878Z,12.00
2018-12-14T06:29:43.472Z,10.63
2018-12-14T06:32:12.143Z,11.77
2018-12-14T06:34:40.681Z,11.30
2018-12-14T06:37:09.681Z,11.87
2018-12-14T06:39:38.712Z,11.53
2018-12-14T06:42:07.705Z,11.97
2018-12-14T06:44:36.811Z,12.27
2018-12-14T06:47:05.375Z,15.20
2018-12-14T06:49:34.433Z,15.67
2018-12-14T06:52:02.959Z,18.50
2018-12-14T06:54:31.505Z,12.93
2018-12-14T06:57:00.033Z,11.67
2018-12-14T06:59:28.543Z,13.90
2018-12-14T07:01:57.328Z,11.83
2018-12-14T07:04:25.865Z,12.53
2018-12-14T07:06:54.409Z,12.33
2018-12-14T07:09:22.988Z,12.97
2018-12-14T07:11:51.564Z,11.97
2018-12-14T07:14:20.239Z,13.60
2018-12-14T07:16:48.864Z,13.37
2018-12-14T07:19:17.470Z,13.80
2018-12-14T07:21:45.995Z,15.63
2018-12-14T07:24:15.544Z,12.00
2018-12-14T07:26:44.316Z,13.70
2018-12-14T07:29:13.265Z,11.80
2018-12-14T07:31:41.808Z,14.03
2018-12-14T07:34:10.461Z,14.80
2018-12-14T07:36:39.001Z,11.70
2018-12-14T07:39:07.633Z,13.43
2018-12-14T07:41:36.174Z,12.73
2018-12-14T07:44:04.830Z,12.00
2018-12-14T07:46:33.485Z,12.17
2018-12-14T07:49:02.076Z,11.83
2018-12-14T07:51:30.881Z,11.87
2018-12-14T07:53:59.421Z,12.23
2018-12-14T07:56:28.079Z,11.60
2018-12-14T07:58:57.099Z,10.90
2018-12-14T08:01:26.193Z,12.80
2018-12-14T08:03:54.747Z,13.97
2018-12-14T08:06:23.284Z,12.17
2018-12-14T08:08:51.788Z,12.90
2018-12-14T08:11:20.389Z,11.97
2018-12-14T08:13:48.972Z,13.40
2018-12-14T08:16:19.021Z,15.97
2018-12-14T08:18:47.668Z,18.73
2018-12-14T08:21:16.556Z,13.23
2018-12-14T08:23:45.308Z,12.47
2018-12-14T08:26:13.851Z,13.97
2018-12-14T08:28:42.439Z,15.23
2018-12-14T08:31:11.175Z,14.83
2018-12-14T08:33:39.689Z,11.63
2018-12-14T08:36:08.345Z,13.87
2018-12-14T08:38:36.882Z,12.40
2018-12-14T08:41:05.982Z,11.03
2018-12-14T08:43:34.524Z,13.37
2018-12-14T08:46:03.074Z,14.63
2018-12-14T08:48:31.808Z,12.43
2018-12-14T08:51:00.364Z,13.70
2018-12-14T08:53:29.338Z,12.67
2018-12-14T08:55:57.986Z,12.80
2018-12-14T08:58:26.635Z,14.00
2018-12-14T09:00:55.176Z,12.97
2018-12-14T09:03:23.686Z,14.57
2018-12-14T09:05:52.237Z,15.83
2018-12-14T09:08:20.799Z,13.57
2018-12-14T09:10:49.402Z,12.00
2018-12-14T09:13:17.981Z,13.87
2018-12-14T09:15:46.559Z,13.47
2018-12-14T09:18:15.069Z,12.93
2018-12-14T09:20:43.608Z,14.23
2018-12-14T09:23:12.472Z,15.80
2018-12-14T09:25:40.996Z,11.20
2018-12-14T09:28:09.576Z,13.20
2018-12-14T09:30:42.657Z,14.03
2018-12-14T09:33:09.716Z,12.77
2018-12-14T09:35:38.323Z,12.23
2018-12-14T09:38:06.895Z,11.13
2018-12-14T09:40:35.522Z,12.30
2018-12-14T09:43:04.177Z,12.83
2018-12-14T09:45:32.975Z,13.10
2018-12-14T09:48:02.741Z,11.37
2018-12-14T09:50:31.449Z,15.83
2018-12-14T09:53:00.231Z,12.27
2018-12-14T09:55:28.961Z,13.43
2018-12-14T09:57:57.491Z,10.73
2018-12-14T10:00:26.148Z,12.97
2018-12-14T10:02:54.709Z,12.87
2018-12-14T10:05:23.251Z,12.30
2018-12-14T10:07:51.767Z,12.33
2018-12-14T10:10:20.433Z,13.40
2018-12-14T10:12:49.044Z,11.37
2018-12-14T10:15:17.773Z,11.70
2018-12-14T10:17:46.588Z,11.50
2018-12-14T10:20:15.174Z,15.07
2018-12-14T10:22:43.896Z,16.30
2018-12-14T10:25:12.450Z,12.47
2018-12-14T10:27:40.984Z,13.83
2018-12-14T10:30:10.000Z,13.67
2018-12-14T10:32:38.552Z,15.07
2018-12-14T10:35:08.841Z,12.37
2018-12-14T10:37:37.460Z,12.77
2018-12-14T10:40:07.678Z,13.07
2018-12-14T10:42:36.648Z,11.83
2018-12-14T10:45:06.004Z,12.63
2018-12-14T10:47:34.560Z,13.53
2018-12-14T10:50:04.061Z,12.30
2018-12-14T10:52:32.833Z,14.03
2018-12-14T10:55:01.368Z,13.73
2018-12-14T10:57:30.371Z,12.73
2018-12-14T10:59:58.931Z,15.30
2018-12-14T11:02:27.695Z,13.47
2018-12-14T11:04:56.223Z,11.83
2018-12-14T11:07:24.752Z,10.70
2018-12-14T11:09:53.303Z,13.27
2018-12-14T11:12:22.116Z,12.30
2018-12-14T11:14:51.227Z,13.40
2018-12-14T11:17:19.727Z,13.60
2018-12-14T11:19:48.355Z,11.23
2018-12-14T11:22:16.895Z,12.40
2018-12-14T11:24:45.425Z,13.57
2018-12-14T11:27:13.964Z,16.00
2018-12-14T11:29:42.541Z,12.90
2018-12-14T11:32:11.190Z,14.17
2018-12-14T11:34:39.882Z,10.73
2018-12-14T11:37:08.714Z,14.57
2018-12-14T11:39:37.186Z,9.90
2018-12-14T11:42:06.075Z,12.67
2018-12-14T11:44:34.696Z,10.77
2018-12-14T11:47:03.226Z,11.43
2018-12-14T11:49:32.015Z,10.97
2018-12-14T11:52:01.168Z,12.30
2018-12-14T11:54:29.970Z,11.63
2018-12-14T11:56:59.447Z,9.33
2018-12-14T11:59:28.074Z,12.17
2018-12-14T12:01:56.632Z,12.77
2018-12-14T12:04:25.133Z,10.90
2018-12-14T12:06:53.739Z,9.87
2018-12-14T12:09:22.277Z,12.67
2018-12-14T12:11:50.831Z,11.10
2018-12-14T12:14:19.489Z,10.63
2018-12-14T12:16:48.017Z,10.80
2018-12-14T12:19:16.650Z,9.60
2018-12-14T12:21:45.614Z,11.07
2018-12-14T12:24:14.129Z,10.93
2018-12-14T12:26:42.684Z,11.50
2018-12-14T12:29:12.197Z,8.10
2018-12-14T12:31:40.996Z,10.37
2018-12-14T12:34:09.606Z,10.27
2018-12-14T12:36:38.168Z,9.07
2018-12-14T12:39:07.951Z,8.07
2018-12-14T12:41:36.483Z,9.70
2018-12-14T12:44:05.034Z,10.00
2018-12-14T12:46:33.757Z,9.57
2018-12-14T12:49:02.446Z,7.87
2018-12-14T12:51:31.022Z,8.53
2018-12-14T12:53:59.616Z,9.13
2018-12-14T12:56:28.489Z,8.87
2018-12-14T12:58:57.175Z,8.97
2018-12-14T13:01:25.712Z,9.03
2018-12-14T13:03:54.251Z,9.73
2018-12-14T13:06:22.761Z,9.20
2018-12-14T13:08:51.285Z,9.83
2018-12-14T13:11:19.893Z,9.70
2018-12-14T13:13:48.441Z,10.70
2018-12-14T13:16:16.988Z,10.73
2018-12-14T13:18:45.562Z,10.43
2018-12-14T13:21:14.095Z,10.57
2018-12-14T13:23:42.732Z,10.70
2018-12-14T13:26:11.301Z,10.03
2018-12-14T13:31:18.092Z,11.50
2018-12-14T13:33:46.592Z,11.93
2018-12-14T13:36:15.188Z,11.57
2018-12-14T13:38:43.726Z,11.57
2018-12-14T13:41:12.386Z,13.53
2018-12-14T13:43:41.842Z,12.00
2018-12-14T13:46:10.372Z,12.63
2018-12-14T13:48:38.902Z,15.67
2018-12-14T13:51:07.544Z,14.67
2018-12-14T13:53:36.101Z,12.00
2018-12-14T13:56:04.804Z,12.07
2018-12-14T13:58:33.505Z,13.37
2018-12-14T14:01:02.026Z,13.77
2018-12-14T14:03:30.663Z,12.53
2018-12-14T14:05:59.280Z,11.97
2018-12-14T14:08:27.934Z,13.13
2018-12-14T14:10:56.529Z,14.20
2018-12-14T14:13:25.083Z,13.13
2018-12-14T14:15:53.626Z,11.77
2018-12-14T14:18:22.170Z,12.37
2018-12-14T14:20:50.809Z,12.77
2018-12-14T14:23:19.476Z,13.23
2018-12-14T14:25:48.670Z,11.83
2018-12-14T14:28:17.745Z,15.20
2018-12-14T14:30:46.451Z,13.70
2018-12-14T14:33:15.021Z,13.17
2018-12-14T14:35:46.348Z,14.10
2018-12-14T14:38:14.922Z,13.47
2018-12-14T14:40:43.504Z,14.23
2018-12-14T14:43:12.046Z,11.43
2018-12-14T14:45:40.611Z,13.63
2018-12-14T14:48:09.179Z,18.23
2018-12-14T14:50:37.732Z,13.57
2018-12-14T14:53:06.245Z,12.93
2018-12-14T14:55:34.783Z,12.60
2018-12-14T14:58:03.385Z,13.13
2018-12-14T15:00:33.337Z,15.00
2018-12-14T15:03:02.189Z,14.63
2018-12-14T15:05:30.828Z,17.70
2018-12-14T15:07:59.359Z,13.57
2018-12-14T15:10:27.955Z,16.50
2018-12-14T15:12:56.504Z,16.20
2018-12-14T15:15:25.022Z,12.70
2018-12-14T15:17:53.575Z,13.67
2018-12-14T15:20:22.120Z,15.33
2018-12-14T15:22:50.666Z,16.20
2018-12-14T15:25:19.268Z,17.30
2018-12-14T15:27:47.851Z,15.40
2018-12-14T15:30:16.494Z,14.60
2018-12-14T15:32:45.007Z,13.90
2018-12-14T15:35:14.728Z,13.13
2018-12-14T15:37:43.273Z,14.33
2018-12-14T15:40:12.981Z,14.17
2018-12-14T15:42:41.519Z,13.80
2018-12-14T15:45:13.074Z,14.73
2018-12-14T15:47:40.762Z,13.67
2018-12-14T15:50:09.408Z,14.60
2018-12-14T15:52:37.994Z,15.33
2018-12-14T15:55:06.769Z,15.17
2018-12-14T15:57:35.329Z,15.63
2018-12-14T16:00:04.151Z,14.60
2018-12-14T16:02:32.684Z,14.50
2018-12-14T16:05:01.198Z,18.03
2018-12-14T16:07:36.224Z,40.90
2018-12-14T16:10:05.685Z,44.80
2018-12-14T16:12:34.198Z,56.87
2018-12-14T16:15:02.839Z,50.23
2018-12-14T16:17:31.458Z,40.60
2018-12-14T16:20:00.053Z,41.27
2018-12-14T16:22:29.469Z,48.57
2018-12-14T16:24:58.018Z,37.07
2018-12-14T16:27:26.626Z,33.27
2018-12-14T16:29:55.177Z,34.57
2018-12-14T16:32:23.839Z,33.53
2018-12-14T16:34:52.348Z,30.73
2018-12-14T16:37:20.895Z,38.27
2018-12-14T16:39:49.389Z,33.50
2018-12-14T16:42:17.944Z,27.13
2018-12-14T16:44:46.485Z,23.87
2018-12-14T16:47:15.031Z,19.87
2018-12-14T16:49:43.595Z,16.97
2018-12-14T16:52:12.157Z,17.00
2018-12-14T16:54:40.710Z,16.07
2018-12-14T16:57:09.342Z,15.80
2018-12-14T16:59:38.742Z,15.80
2018-12-14T17:02:07.304Z,16.67
2018-12-14T17:04:35.853Z,18.03
2018-12-14T17:07:04.378Z,16.90
2018-12-14T17:09:32.914Z,18.07
2018-12-14T17:12:01.452Z,16.37
2018-12-14T17:14:29.999Z,14.87
2018-12-14T17:16:58.801Z,18.27
2018-12-14T17:19:27.333Z,14.83
2018-12-14T17:21:56.000Z,15.73
2018-12-14T17:24:24.542Z,18.20
2018-12-14T17:26:53.072Z,18.33
2018-12-14T17:29:21.624Z,20.60
2018-12-14T17:31:50.170Z,17.40
2018-12-14T17:34:18.721Z,16.13
2018-12-14T17:36:47.334Z,15.17
2018-12-14T17:39:15.943Z,16.27
2018-12-14T17:41:44.515Z,16.70
2018-12-14T17:44:13.055Z,16.53
2018-12-14T17:46:41.917Z,15.20
2018-12-14T17:49:10.483Z,15.73
2018-12-14T17:51:39.394Z,16.60
2018-12-14T17:54:08.214Z,16.63
2018-12-14T17:56:36.968Z,23.73
2018-12-14T17:59:05.522Z,21.47
2018-12-14T18:01:34.078Z,19.80
2018-12-14T18:04:02.639Z,20.67
2018-12-14T18:06:31.195Z,20.70
2018-12-14T18:08:59.717Z,26.67
2018-12-14T18:11:28.316Z,28.50
2018-12-14T18:13:56.911Z,41.57
2018-12-14T18:16:25.502Z,32.43
2018-12-14T18:18:54.002Z,30.90
2018-12-14T18:21:22.557Z,27.33
2018-12-14T18:23:51.069Z,27.30
2018-12-14T18:26:19.778Z,22.83
2018-12-14T18:28:48.370Z,20.27
2018-12-14T18:31:16.885Z,21.77
2018-12-14T18:33:45.477Z,17.20
2018-12-14T18:36:14.029Z,17.67
2018-12-14T18:38:42.767Z,17.43
2018-12-14T18:41:11.329Z,16.37
2018-12-14T18:43:39.939Z,16.17
2018-12-14T18:46:08.484Z,19.30
2018-12-14T18:48:37.427Z,17.67
2018-12-14T18:51:06.774Z,16.37
2018-12-14T18:53:35.293Z,18.37
2018-12-14T18:56:03.863Z,18.27
2018-12-14T18:58:32.416Z,21.27
2018-12-14T19:01:01.056Z,17.07
2018-12-14T19:03:29.630Z,19.47
2018-12-14T19:05:58.192Z,18.60
2018-12-14T19:08:26.790Z,22.33
2018-12-14T19:10:55.339Z,18.00
2018-12-14T19:13:23.855Z,19.43
2018-12-14T19:15:52.403Z,19.60
2018-12-14T19:18:21.019Z,18.53
2018-12-14T19:20:49.560Z,18.70
2018-12-14T19:23:21.398Z,19.63
2018-12-14T19:25:50.301Z,23.90
2018-12-14T19:28:18.852Z,20.70
2018-12-14T19:30:47.516Z,20.70
2018-12-14T19:33:16.076Z,16.67
2018-12-14T19:35:46.240Z,19.43
2018-12-14T19:38:14.798Z,20.23
2018-12-14T19:40:44.014Z,18.97
2018-12-14T19:43:12.846Z,18.97
2018-12-14T19:45:41.699Z,18.43
2018-12-14T19:48:10.518Z,18.37
2018-12-14T19:50:39.188Z,20.03
2018-12-14T19:53:07.819Z,16.60
2018-12-14T19:55:36.371Z,19.13
2018-12-14T19:58:05.220Z,17.87
2018-12-14T20:00:33.904Z,17.33
2018-12-14T20:03:02.440Z,18.07
2018-12-14T20:05:30.995Z,18.27
2018-12-14T20:07:59.545Z,17.90
2018-12-14T20:10:28.100Z,17.87
2018-12-14T20:12:56.645Z,18.70
2018-12-14T20:15:25.275Z,19.00
2018-12-14T20:17:53.909Z,19.50
2018-12-14T20:20:22.465Z,16.90
2018-12-14T20:22:51.001Z,18.97
2018-12-14T20:25:19.567Z,17.23
2018-12-14T20:27:48.297Z,19.07
2018-12-14T20:30:16.849Z,20.73
2018-12-14T20:32:45.581Z,19.83
2018-12-14T20:35:14.237Z,20.17
2018-12-14T20:37:43.098Z,19.10
2018-12-14T20:40:12.463Z,17.70
2018-12-14T20:42:41.007Z,19.67
2018-12-14T20:45:09.680Z,19.87
2018-12-14T20:47:38.194Z,19.67
2018-12-14T20:50:07.697Z,26.37
2018-12-14T20:52:36.903Z,26.20
2018-12-14T20:55:07.692Z,21.47
2018-12-14T20:57:36.244Z,23.37
2018-12-14T21:00:07.283Z,17.57
2018-12-14T21:02:35.837Z,19.90
2018-12-14T21:05:05.291Z,20.20
2018-12-14T21:07:33.841Z,18.60
2018-12-14T21:10:02.390Z,21.57
2018-12-14T21:12:30.961Z,19.20
2018-12-14T21:14:59.501Z,23.80
2018-12-14T21:17:28.163Z,22.83
2018-12-14T21:19:56.855Z,22.60
2018-12-14T21:22:25.521Z,20.90
2018-12-14T21:24:54.117Z,24.37
2018-12-14T21:27:22.675Z,22.00
2018-12-14T21:29:51.249Z,27.20
2018-12-14T21:32:19.971Z,23.33
2018-12-14T21:34:48.517Z,23.17
2018-12-14T21:37:17.078Z,20.50
2018-12-14T21:39:45.591Z,23.13
2018-12-14T21:42:14.319Z,23.07
2018-12-14T21:44:42.882Z,23.30
2018-12-14T21:47:11.436Z,21.43
2018-12-14T21:49:40.208Z,24.70
2018-12-14T21:52:08.756Z,23.07
2018-12-14T21:54:37.320Z,22.47
2018-12-14T21:57:06.005Z,21.37
2018-12-14T21:59:34.805Z,23.90
2018-12-14T22:02:03.600Z,22.93
2018-12-14T22:04:32.323Z,25.13
2018-12-14T22:07:01.157Z,20.03
2018-12-14T22:09:30.515Z,21.73
2018-12-14T22:11:59.060Z,22.43
2018-12-14T22:14:27.885Z,24.93
2018-12-14T22:16:56.526Z,24.70
2018-12-14T22:19:25.428Z,22.70
2018-12-14T22:21:54.081Z,21.63
2018-12-14T22:24:22.652Z,22.43
2018-12-14T22:26:51.202Z,23.17
2018-12-14T22:29:19.991Z,21.87
2018-12-14T22:31:48.558Z,20.57
2018-12-14T22:34:17.100Z,22.93
2018-12-14T22:36:45.693Z,19.40
2018-12-14T22:39:14.575Z,20.70
2018-12-14T22:41:43.101Z,21.93
2018-12-14T22:44:11.652Z,20.30
2018-12-14T22:46:45.591Z,22.77
2018-12-14T22:49:10.731Z,22.80
2018-12-14T22:51:39.275Z,31.77
2018-12-14T22:54:07.853Z,25.43
2018-12-14T22:56:36.380Z,24.07
2018-12-14T22:59:04.908Z,24.93
2018-12-14T23:01:33.491Z,23.87
2018-12-14T23:04:02.045Z,25.97
2018-12-14T23:06:30.986Z,28.80
2018-12-14T23:08:59.519Z,25.73
2018-12-14T23:11:28.099Z,26.20
2018-12-14T23:13:56.619Z,22.30
2018-12-14T23:16:25.150Z,23.50
2018-12-14T23:18:53.675Z,23.03
2018-12-14T23:21:22.206Z,25.90
2018-12-14T23:23:50.748Z,24.17
2018-12-14T23:26:19.318Z,32.13
2018-12-14T23:28:47.842Z,27.30
2018-12-14T23:31:16.402Z,26.43
2018-12-14T23:33:44.916Z,27.17
2018-12-14T23:36:13.440Z,29.80
2018-12-14T23:38:42.008Z,26.87
2018-12-14T23:41:10.602Z,27.43
2018-12-14T23:43:39.148Z,25.13
2018-12-14T23:46:07.660Z,24.70
2018-12-14T23:48:36.210Z,24.33
2018-12-14T23:51:04.796Z,28.27
2018-12-14T23:53:33.300Z,34.53
2018-12-14T23:56:01.842Z,43.07
2018-12-14T23:58:31.096Z,47.13
